WetterOnline ( https://www.wetteronline.de )

Wetter aktuell Pocking

Aktuelles Wetter: Fürstenzell (480m)

6-stündlich | Neueste Meldungen
Ortszeit Temperatur Wetter
Fr, 27.11. 7:00 -2.8° C Nebel
Fr, 27.11. 1:00 -2.3° C Nebel
Do, 26.11. 19:00 -2.3° C Nebel
Do, 26.11. 13:00 -1.8° C bedeckt
Do, 26.11. 7:00 -2.2° C Nebel
Do, 26.11. 1:00 -1.4° C Nebel
Mi, 25.11. 19:00 -0.8° C bedeckt
Mi, 25.11. 13:00 -0.5° C bedeckt
Ortszeit Temperatur Wetter
Fr, 27.11. 12:30 -1.6° C Nebel
Fr, 27.11. 12:20 -1.6° C Nebel
Fr, 27.11. 12:10 -1.7° C Nebel
Fr, 27.11. 12:00 -1.8° C Nebel
Fr, 27.11. 11:50 -1.8° C Nebel
Fr, 27.11. 11:40 -1.9° C Nebel
Fr, 27.11. 11:30 -1.9° C Nebel
Fr, 27.11. 11:00 -2.0° C Nebel
Fr, 27.11. 9:00 -2.7° C Nebel
Ortszeit Relative Feuchte Sichtweite
Fr, 27.11. 7:00 96% 0.2 km
Fr, 27.11. 1:00 98% 100 m
Do, 26.11. 19:00 97% 0.3 km
Do, 26.11. 13:00 98% 1.0 km
Do, 26.11. 7:00 99% 0.2 km
Do, 26.11. 1:00 98% 0.3 km
Mi, 25.11. 19:00 95% 1.8 km
Mi, 25.11. 13:00 96% 2.9 km
Ortszeit Relative Feuchte Sichtweite
Fr, 27.11. 12:30 97% 0.2 km
Fr, 27.11. 12:20 97% -
Fr, 27.11. 12:10 99% -
Fr, 27.11. 12:00 99% 100 m
Fr, 27.11. 11:50 99% -
Fr, 27.11. 11:40 98% -
Fr, 27.11. 11:30 97% 100 m
Fr, 27.11. 11:00 97% 100 m
Fr, 27.11. 9:00 97% 100 m
Ortszeit Niederschlagsmenge Niederschlagsart
Fr, 27.11. 7:00 0.0 l/m2 in 12 Std. -
Fr, 27.11. 1:00 0.0 l/m2 in 6 Std. -
Do, 26.11. 19:00 0.0 l/m2 in 12 Std. -
Do, 26.11. 13:00 0.0 l/m2 in 6 Std. -
Do, 26.11. 7:00 0.0 l/m2 in 12 Std. -
Do, 26.11. 1:00 0.0 l/m2 in 6 Std. -
Mi, 25.11. 19:00 0.0 l/m2 in 12 Std. -
Mi, 25.11. 13:00 0.0 l/m2 in 6 Std. -
Ortszeit Niederschlagsmenge Niederschlagsart
Fr, 27.11. 12:30 0.0 l/m2 in 1 Std. -
Fr, 27.11. 12:20 keine Meldung -
Fr, 27.11. 12:10 keine Meldung -
Fr, 27.11. 12:00 0.0 l/m2 in 1 Std. -
Fr, 27.11. 11:50 keine Meldung -
Fr, 27.11. 11:40 keine Meldung -
Fr, 27.11. 11:30 0.0 l/m2 in 1 Std. -
Fr, 27.11. 11:00 0.0 l/m2 in 1 Std. -
Fr, 27.11. 9:00 keine Meldung -
Ortszeit Stärke Spitze Richtung
km/h Bft. km/h Grad Sektor
Fr, 27.11. 7:00 6 1 15 130° SO
Fr, 27.11. 1:00 4 1 11 120° SO
Do, 26.11. 19:00 4 1 11 140° SO
Do, 26.11. 13:00 2 1 15 110° O
Do, 26.11. 7:00 4 1 11 160° S
Do, 26.11. 1:00 4 1 18 70° O
Mi, 25.11. 19:00 9 2 15 120° SO
Mi, 25.11. 13:00 9 2 19 120° SO
Ortszeit Stärke Spitze Richtung
km/h Bft. km/h Grad Sektor
Fr, 27.11. 12:30 6 1 9 60° NO
Fr, 27.11. 12:20 6 1 - 60° NO
Fr, 27.11. 12:10 6 1 - 150° SO
Fr, 27.11. 12:00 4 1 14 110° O
Fr, 27.11. 11:50 4 1 - 110° O
Fr, 27.11. 11:40 7 2 - 120° SO
Fr, 27.11. 11:30 7 2 13 130° SO
Fr, 27.11. 11:00 4 1 11 90° O
Fr, 27.11. 9:00 4 1 11 200° S
Ortszeit Untergrenze Bedeckung Gattung
total tief tief mittel hoch
Fr, 27.11. 7:00 <30 m 8/8 0/8 - - -
Fr, 27.11. 1:00 <30 m 8/8 0/8 - - -
Do, 26.11. 19:00 <30 m 8/8 0/8 - - -
Do, 26.11. 13:00 30 m 8/8 8/8 - - -
Do, 26.11. 7:00 <30 m 8/8 0/8 - - -
Do, 26.11. 1:00 <30 m 8/8 0/8 - - -
Mi, 25.11. 19:00 60 m 8/8 8/8 - - -
Mi, 25.11. 13:00 60 m 8/8 8/8 - - -
Ortszeit Bedeckungsgrad in Achtel und Wolkenuntergrenze
Fr, 27.11. 12:30 8(<30m)
Fr, 27.11. 12:20 8(<30m)
Fr, 27.11. 12:10 8(<30m)
Fr, 27.11. 12:00 8(<30m)
Fr, 27.11. 11:50 8(<30m)
Fr, 27.11. 11:40 8(<30m)
Fr, 27.11. 11:30 8(<30m)
Fr, 27.11. 11:00 8(<30m)
Fr, 27.11. 9:00 8(<30m)
Ortszeit Luftdruck NN (hPa) Tendenz (hPa in 3 Std.)
Fr, 27.11. 7:00 1025 - 0,2
Fr, 27.11. 1:00 1026 - 0,6
Do, 26.11. 19:00 1026 + 0,1
Do, 26.11. 13:00 1027 - 0,6
Do, 26.11. 7:00 1027 + 0,6
Do, 26.11. 1:00 1026 + 0,3
Mi, 25.11. 19:00 1025 + 0,8
Mi, 25.11. 13:00 1025 - 0,5
Ortszeit Luftdruck NN (hPa) Tendenz (hPa in 3 Std.)
Fr, 27.11. 12:30 1025 - 0,6
Fr, 27.11. 12:20 1025 keine Meldung
Fr, 27.11. 12:10 1025 keine Meldung
Fr, 27.11. 12:00 1025 - 0,4
Fr, 27.11. 11:50 1025 keine Meldung
Fr, 27.11. 11:40 1026 keine Meldung
Fr, 27.11. 11:30 1026 - 0,1
Fr, 27.11. 11:00 1026 + 0,3
Fr, 27.11. 9:00 1026 + 0,7
Ortszeit Schneehöhe (cm)
Fr, 27.11. 7:00 0
Fr, 27.11. 1:00 0
Do, 26.11. 19:00 0
Do, 26.11. 13:00 0
Do, 26.11. 7:00 0
Do, 26.11. 1:00 0
Mi, 25.11. 19:00 0
Mi, 25.11. 13:00 0
Ortszeit Schneehöhe (cm)
Fr, 27.11. 12:30 0
Fr, 27.11. 12:20 0
Fr, 27.11. 12:10 0
Fr, 27.11. 12:00 0
Fr, 27.11. 11:50 0
Fr, 27.11. 11:40 0
Fr, 27.11. 11:30 0
Fr, 27.11. 11:00 0
Fr, 27.11. 9:00 -
Link zu dieser Seite / Seite empfehlen

Das Wetter in ...